Time;durP1;ratioP1;P1;durP2;ratioP2;P2;SDS_P1;SDS_P2;PMS_P1;PMS_P2;Temp;Humidity;BMP_temperature;BMP_pressure;BME280_temperature;BME280_humidity;BME280_pressure;Samples;Min_cycle;Max_cycle;Signal;HPM_P1;HPM_P2
2023/12/12 00:02:01;;;;;;;11.05;7.57;;;;;;;;;;5112699;28;20124;-61
2023/12/12 00:04:32;;;;;;;14.20;7.85;;;;;;;;;;5141596;28;20135;-61
2023/12/12 00:07:03;;;;;;;15.40;8.30;;;;;;;;;;5089033;29;20770;-64
2023/12/12 00:09:34;;;;;;;11.50;7.97;;;;;;;;;;5091336;29;20131;-65
2023/12/12 00:12:05;;;;;;;13.60;8.60;;;;;;;;;;5116063;28;20039;-65
2023/12/12 00:14:36;;;;;;;13.35;8.00;;;;;;;;;;5139181;28;20136;-63
2023/12/12 00:17:07;;;;;;;11.80;7.43;;;;;;;;;;5113602;28;20061;-61
2023/12/12 00:19:45;;;;;;;11.77;7.07;;;;;;;;;;5112192;28;20434;-60
2023/12/12 00:22:16;;;;;;;11.85;7.15;;;;;;;;;;5117372;28;20484;-61
2023/12/12 00:24:48;;;;;;;11.65;6.97;;;;;;;;;;5140207;28;20047;-60
2023/12/12 00:27:19;;;;;;;12.43;7.07;;;;;;;;;;5111056;28;20047;-62
2023/12/12 00:29:50;;;;;;;13.25;7.85;;;;;;;;;;5103218;29;20529;-61
2023/12/12 00:32:21;;;;;;;10.77;6.78;;;;;;;;;;5113469;28;20138;-61
2023/12/12 00:34:53;;;;;;;10.90;7.10;;;;;;;;;;5116564;28;20074;-60
2023/12/12 00:37:24;;;;;;;;;;;;;;;;;;5142895;28;20140;-62
2023/12/12 00:39:55;;;;;;;10.23;6.15;;;;;;;;;;5114310;28;19954;-62
2023/12/12 00:42:27;;;;;;;11.70;7.43;;;;;;;;;;5120132;28;20088;-62
2023/12/12 00:44:58;;;;;;;15.93;6.72;;;;;;;;;;5115624;28;20390;-62
2023/12/12 00:47:30;;;;;;;8.93;5.90;;;;;;;;;;5118533;28;20032;-62
2023/12/12 00:50:01;;;;;;;9.95;6.85;;;;;;;;;;5099913;28;20474;-61
2023/12/12 00:52:32;;;;;;;10.68;6.95;;;;;;;;;;5102293;29;20042;-58
2023/12/12 00:55:04;;;;;;;10.65;6.68;;;;;;;;;;5113117;28;20479;-60
2023/12/12 00:57:35;;;;;;;13.03;6.53;;;;;;;;;;5114803;28;20046;-60
2023/12/12 01:00:07;;;;;;;9.90;6.13;;;;;;;;;;5143371;28;20772;-60
2023/12/12 01:02:38;;;;;;;9.90;6.60;;;;;;;;;;5095224;29;20118;-61
2023/12/12 01:05:09;;;;;;;13.18;6.93;;;;;;;;;;5141693;28;20645;-62
2023/12/12 01:07:40;;;;;;;11.88;6.07;;;;;;;;;;5091814;29;20031;-62
2023/12/12 01:10:11;;;;;;;9.88;6.22;;;;;;;;;;5122914;28;20097;-63
2023/12/12 01:12:42;;;;;;;11.90;6.57;;;;;;;;;;5144183;28;20050;-58
2023/12/12 01:15:13;;;;;;;11.25;6.32;;;;;;;;;;5102836;29;20039;-58
2023/12/12 01:17:44;;;;;;;10.25;6.15;;;;;;;;;;5100777;29;20083;-58
2023/12/12 01:20:15;;;;;;;10.48;6.53;;;;;;;;;;5101660;29;20041;-61
2023/12/12 01:22:47;;;;;;;11.02;6.35;;;;;;;;;;5097215;29;20083;-60
2023/12/12 01:25:18;;;;;;;9.95;6.78;;;;;;;;;;5115098;28;20123;-61
2023/12/12 01:27:49;;;;;;;11.32;6.65;;;;;;;;;;5098248;29;20047;-61
2023/12/12 01:30:20;;;;;;;10.20;6.93;;;;;;;;;;5111405;28;20487;-59
2023/12/12 01:32:51;;;;;;;11.65;6.47;;;;;;;;;;5112088;28;20036;-59
2023/12/12 01:35:22;;;;;;;11.68;6.30;;;;;;;;;;5144143;28;20494;-59
2023/12/12 01:37:53;;;;;;;10.80;6.72;;;;;;;;;;5102078;29;20039;-59
2023/12/12 01:40:25;;;;;;;8.25;5.97;;;;;;;;;;5134718;28;20363;-59
2023/12/12 01:43:06;;;;;;;10.70;6.07;;;;;;;;;;5104345;29;20514;-59
2023/12/12 01:45:37;;;;;;;10.70;6.55;;;;;;;;;;5101463;29;20043;-59
2023/12/12 01:48:08;;;;;;;11.23;6.57;;;;;;;;;;5101780;28;20523;-59
2023/12/12 01:50:39;;;;;;;9.13;6.03;;;;;;;;;;5137339;28;20047;-59
2023/12/12 01:53:10;;;;;;;8.68;6.30;;;;;;;;;;5100946;29;20391;-60
2023/12/12 01:55:42;;;;;;;10.68;6.05;;;;;;;;;;5143058;28;20044;-60
2023/12/12 01:58:13;;;;;;;7.32;5.88;;;;;;;;;;5119325;28;20086;-60
2023/12/12 02:00:44;;;;;;;9.88;6.40;;;;;;;;;;5147332;28;20039;-59
2023/12/12 02:03:16;;;;;;;9.97;6.27;;;;;;;;;;5136828;28;20042;-59
2023/12/12 02:05:48;;;;;;;10.60;6.37;;;;;;;;;;5143663;28;20046;-59
2023/12/12 02:08:19;;;;;;;9.02;5.82;;;;;;;;;;5103662;29;20086;-60
2023/12/12 02:10:51;;;;;;;10.27;5.75;;;;;;;;;;5099190;29;20518;-59
2023/12/12 02:13:22;;;;;;;12.97;6.23;;;;;;;;;;5112093;28;20130;-61
2023/12/12 02:15:53;;;;;;;12.07;6.20;;;;;;;;;;5147778;28;20082;-60
2023/12/12 02:18:24;;;;;;;10.10;5.90;;;;;;;;;;5105315;29;20050;-61
2023/12/12 02:20:56;;;;;;;8.75;5.32;;;;;;;;;;5098372;29;20382;-61
2023/12/12 02:23:28;;;;;;;9.80;6.10;;;;;;;;;;5122831;28;20043;-61
2023/12/12 02:26:00;;;;;;;12.05;6.60;;;;;;;;;;5116154;29;20384;-61
2023/12/12 02:28:31;;;;;;;9.95;5.95;;;;;;;;;;5146599;28;20031;-61
2023/12/12 02:31:02;;;;;;;10.30;6.25;;;;;;;;;;5120607;29;20043;-60
2023/12/12 02:33:33;;;;;;;7.85;5.20;;;;;;;;;;5146798;28;20035;-60
2023/12/12 02:36:05;;;;;;;8.55;5.57;;;;;;;;;;5117961;28;20051;-61
2023/12/12 02:38:36;;;;;;;9.17;5.77;;;;;;;;;;5146298;28;20487;-60
2023/12/12 02:41:08;;;;;;;12.05;5.85;;;;;;;;;;5143916;28;20474;-60
2023/12/12 02:43:39;;;;;;;8.55;5.22;;;;;;;;;;5102991;29;20377;-60
2023/12/12 02:46:10;;;;;;;10.02;6.20;;;;;;;;;;5146923;28;20486;-60
2023/12/12 02:48:41;;;;;;;10.23;5.28;;;;;;;;;;5102024;29;20039;-60
2023/12/12 02:51:12;;;;;;;10.90;6.45;;;;;;;;;;5145462;28;20047;-60
2023/12/12 02:53:44;;;;;;;7.72;5.32;;;;;;;;;;5095270;29;20036;-60
2023/12/12 02:56:16;;;;;;;9.52;5.40;;;;;;;;;;5098886;29;20117;-62
2023/12/12 02:58:47;;;;;;;;;;;;;;;;;;5100043;29;20121;-63
2023/12/12 03:01:18;;;;;;;8.82;5.82;;;;;;;;;;5099090;29;19926;-62
2023/12/12 03:03:49;;;;;;;10.45;5.68;;;;;;;;;;5115809;28;20059;-62
2023/12/12 03:06:20;;;;;;;9.32;5.00;;;;;;;;;;5111199;28;20047;-63
2023/12/12 03:08:51;;;;;;;8.70;5.55;;;;;;;;;;5142493;28;20593;-63
2023/12/12 03:11:22;;;;;;;8.65;5.50;;;;;;;;;;5114013;28;20047;-60
2023/12/12 03:13:54;;;;;;;10.25;6.28;;;;;;;;;;5113947;28;20039;-59
2023/12/12 03:16:25;;;;;;;8.52;5.55;;;;;;;;;;5114219;28;20043;-59
2023/12/12 03:18:56;;;;;;;8.20;5.78;;;;;;;;;;5103772;29;20039;-60
2023/12/12 03:21:27;;;;;;;8.65;5.90;;;;;;;;;;5116837;28;20047;-62
2023/12/12 03:23:58;;;;;;;9.77;6.15;;;;;;;;;;5119990;28;20039;-63
2023/12/12 03:26:30;;;;;;;8.20;5.70;;;;;;;;;;5119843;28;20054;-63
2023/12/12 03:29:01;;;;;;;13.55;6.20;;;;;;;;;;5116589;28;20105;-63
2023/12/12 03:31:32;;;;;;;8.82;6.10;;;;;;;;;;5144976;28;20048;-59
2023/12/12 03:34:03;;;;;;;9.63;6.00;;;;;;;;;;5115391;28;20035;-60
2023/12/12 03:36:35;;;;;;;9.70;6.05;;;;;;;;;;5121521;28;20047;-60
2023/12/12 03:39:06;;;;;;;8.80;5.65;;;;;;;;;;5117027;29;20044;-60
2023/12/12 03:41:37;;;;;;;7.77;5.57;;;;;;;;;;5144101;28;20483;-59
2023/12/12 03:44:08;;;;;;;13.10;6.20;;;;;;;;;;5117142;29;20395;-60
2023/12/12 03:46:39;;;;;;;9.98;6.45;;;;;;;;;;5120462;28;20051;-59
2023/12/12 03:49:10;;;;;;;10.35;6.15;;;;;;;;;;5114251;28;20035;-59
2023/12/12 03:51:43;;;;;;;7.90;5.25;;;;;;;;;;5116505;28;20046;-61
2023/12/12 03:54:14;;;;;;;10.20;5.88;;;;;;;;;;5100244;28;20320;-61
2023/12/12 03:56:45;;;;;;;13.35;6.38;;;;;;;;;;5101491;29;20065;-60
2023/12/12 03:59:16;;;;;;;9.05;5.90;;;;;;;;;;5100648;29;20122;-60
2023/12/12 04:01:48;;;;;;;9.20;6.18;;;;;;;;;;5119134;28;20528;-60
2023/12/12 04:04:19;;;;;;;11.60;6.28;;;;;;;;;;5110561;28;20486;-60
2023/12/12 04:06:50;;;;;;;9.48;6.10;;;;;;;;;;5118291;28;20147;-60
2023/12/12 04:09:22;;;;;;;9.13;6.38;;;;;;;;;;5107867;29;20093;-61
2023/12/12 04:11:53;;;;;;;10.63;5.97;;;;;;;;;;5115146;28;20122;-61
2023/12/12 04:14:24;;;;;;;12.55;7.20;;;;;;;;;;5123241;28;20036;-62
2023/12/12 04:16:55;;;;;;;9.57;6.05;;;;;;;;;;5130905;28;20035;-62
2023/12/12 04:19:26;;;;;;;9.48;6.40;;;;;;;;;;5113243;28;20499;-62
2023/12/12 04:21:57;;;;;;;8.85;6.20;;;;;;;;;;5095497;28;20063;-62
2023/12/12 04:24:28;;;;;;;10.07;6.53;;;;;;;;;;5096892;29;20040;-62
2023/12/12 04:27:00;;;;;;;11.32;6.93;;;;;;;;;;5100109;29;20031;-62
2023/12/12 04:29:31;;;;;;;7.22;5.53;;;;;;;;;;5121772;28;20043;-62
2023/12/12 04:32:02;;;;;;;10.13;6.35;;;;;;;;;;5146178;28;20089;-63
2023/12/12 04:34:33;;;;;;;11.40;6.70;;;;;;;;;;5099228;28;20066;-62
2023/12/12 04:37:05;;;;;;;12.65;6.63;;;;;;;;;;5117234;28;20035;-62
2023/12/12 04:39:36;;;;;;;11.43;6.70;;;;;;;;;;5118245;28;20134;-62
2023/12/12 04:42:07;;;;;;;11.23;6.07;;;;;;;;;;5118110;28;20077;-62
2023/12/12 04:44:41;;;;;;;10.33;6.70;;;;;;;;;;5110553;28;20050;-62
2023/12/12 04:47:13;;;;;;;10.68;6.60;;;;;;;;;;5097366;29;20042;-62
2023/12/12 04:49:44;;;;;;;11.10;6.93;;;;;;;;;;5101284;29;20042;-62
2023/12/12 04:52:16;;;;;;;11.25;6.82;;;;;;;;;;5110821;28;20042;-62
2023/12/12 04:54:47;;;;;;;10.25;6.10;;;;;;;;;;5122350;28;20425;-61
2023/12/12 04:57:18;;;;;;;13.63;7.00;;;;;;;;;;5135017;28;20048;-62
2023/12/12 04:59:49;;;;;;;12.02;6.95;;;;;;;;;;5097411;29;20039;-62
2023/12/12 05:02:20;;;;;;;12.55;7.30;;;;;;;;;;5103506;28;20101;-63
2023/12/12 05:04:51;;;;;;;9.53;6.50;;;;;;;;;;5106418;28;20058;-59
2023/12/12 05:07:23;;;;;;;11.82;6.72;;;;;;;;;;5130948;28;20448;-62
2023/12/12 05:09:54;;;;;;;9.20;6.40;;;;;;;;;;5139095;28;20102;-60
2023/12/12 05:12:25;;;;;;;10.20;6.70;;;;;;;;;;5131261;28;20047;-61
2023/12/12 05:14:56;;;;;;;11.27;6.38;;;;;;;;;;5134067;28;20039;-61
2023/12/12 05:17:27;;;;;;;10.70;6.80;;;;;;;;;;5104352;28;20044;-62
2023/12/12 05:19:59;;;;;;;11.13;6.97;;;;;;;;;;5120775;28;20101;-62
2023/12/12 05:22:31;;;;;;;11.27;7.25;;;;;;;;;;5098019;29;20043;-60
2023/12/12 05:25:05;;;;;;;11.77;7.28;;;;;;;;;;5139730;28;20043;-62
2023/12/12 05:27:36;;;;;;;10.23;6.93;;;;;;;;;;5114218;28;20119;-62
2023/12/12 05:30:07;;;;;;;13.27;7.30;;;;;;;;;;5136644;28;20482;-63
2023/12/12 05:32:39;;;;;;;14.45;7.15;;;;;;;;;;5131924;28;20077;-63
2023/12/12 05:35:10;;;;;;;10.27;7.03;;;;;;;;;;5129091;28;20482;-64
2023/12/12 05:37:41;;;;;;;9.52;6.63;;;;;;;;;;5120767;29;20043;-64
2023/12/12 05:40:15;;;;;;;12.00;7.22;;;;;;;;;;5141378;28;20043;-63
2023/12/12 05:42:46;;;;;;;8.00;5.75;;;;;;;;;;5111140;28;20051;-60
2023/12/12 05:45:17;;;;;;;12.65;7.18;;;;;;;;;;5088575;29;20107;-62
2023/12/12 05:47:48;;;;;;;10.57;6.43;;;;;;;;;;5090627;29;20497;-63
2023/12/12 05:50:19;;;;;;;10.98;6.70;;;;;;;;;;5136272;28;20046;-63
2023/12/12 05:52:51;;;;;;;11.98;6.60;;;;;;;;;;5105331;29;20055;-62
2023/12/12 05:55:22;;;;;;;11.68;7.00;;;;;;;;;;5121820;28;20153;-62
2023/12/12 05:57:53;;;;;;;9.90;6.95;;;;;;;;;;5105445;29;20078;-63
2023/12/12 06:00:27;;;;;;;12.07;6.55;;;;;;;;;;5121777;28;20043;-63
2023/12/12 06:02:58;;;;;;;11.15;6.40;;;;;;;;;;5124336;28;20511;-62
2023/12/12 06:05:30;;;;;;;8.83;6.60;;;;;;;;;;5121159;28;20048;-62
2023/12/12 06:08:01;;;;;;;11.00;7.63;;;;;;;;;;5105460;29;20063;-59
2023/12/12 06:10:32;;;;;;;25.13;13.32;;;;;;;;;;5145438;28;20082;-59
2023/12/12 06:13:04;;;;;;;17.38;9.13;;;;;;;;;;5104905;29;20037;-58
2023/12/12 06:15:35;;;;;;;16.93;10.17;;;;;;;;;;5105421;29;20046;-58
2023/12/12 06:18:06;;;;;;;22.25;12.05;;;;;;;;;;5121081;29;20042;-61
2023/12/12 06:20:38;;;;;;;29.73;15.82;;;;;;;;;;5121410;29;20043;-59
2023/12/12 06:23:11;;;;;;;28.00;16.15;;;;;;;;;;5125813;28;20051;-61
2023/12/12 06:25:42;;;;;;;28.95;16.42;;;;;;;;;;5105165;28;20050;-59
2023/12/12 06:28:13;;;;;;;26.58;14.85;;;;;;;;;;5125031;29;20130;-60
2023/12/12 06:30:44;;;;;;;25.85;14.80;;;;;;;;;;5125302;28;20502;-63
2023/12/12 06:33:16;;;;;;;25.13;13.80;;;;;;;;;;5108381;28;20047;-64
2023/12/12 06:35:47;;;;;;;26.92;13.85;;;;;;;;;;5125066;28;20089;-60
2023/12/12 06:38:18;;;;;;;22.67;12.98;;;;;;;;;;5108758;29;20075;-60
2023/12/12 06:40:49;;;;;;;24.25;12.07;;;;;;;;;;5125173;29;20039;-60
2023/12/12 06:43:20;;;;;;;28.00;13.50;;;;;;;;;;5109975;29;20054;-58
2023/12/12 06:45:51;;;;;;;25.30;13.60;;;;;;;;;;5140462;28;20047;-59
2023/12/12 06:48:22;;;;;;;27.60;14.93;;;;;;;;;;5108849;29;20098;-59
2023/12/12 06:50:53;;;;;;;29.80;15.88;;;;;;;;;;5124585;28;20075;-58
2023/12/12 06:53:25;;;;;;;26.70;15.80;;;;;;;;;;5124470;29;20057;-61
2023/12/12 06:55:56;;;;;;;26.23;15.75;;;;;;;;;;5124176;29;20043;-61
2023/12/12 06:58:27;;;;;;;30.17;16.08;;;;;;;;;;5140359;28;20047;-62
2023/12/12 07:00:58;;;;;;;29.95;16.75;;;;;;;;;;5110799;28;20039;-62
2023/12/12 07:03:29;;;;;;;35.50;17.95;;;;;;;;;;5124562;28;20059;-62
2023/12/12 07:06:02;;;;;;;35.58;17.77;;;;;;;;;;5127272;28;20486;-61
2023/12/12 07:08:33;;;;;;;32.55;17.45;;;;;;;;;;5117233;29;20139;-61
2023/12/12 07:11:04;;;;;;;34.78;18.67;;;;;;;;;;5134556;28;20043;-61
2023/12/12 07:13:36;;;;;;;36.00;18.35;;;;;;;;;;5108148;29;20051;-61
2023/12/12 07:16:10;;;;;;;35.45;18.55;;;;;;;;;;5107855;29;20550;-62
2023/12/12 07:18:41;;;;;;;32.85;17.27;;;;;;;;;;5108185;29;20134;-62
2023/12/12 07:21:15;;;;;;;35.78;19.73;;;;;;;;;;5123630;28;20049;-62
2023/12/12 07:23:48;;;;;;;37.63;19.27;;;;;;;;;;5124049;28;20411;-62
2023/12/12 07:26:22;;;;;;;36.13;18.98;;;;;;;;;;5123966;28;20057;-62
2023/12/12 07:28:53;;;;;;;39.95;20.45;;;;;;;;;;5119458;29;20039;-62
2023/12/12 07:31:24;;;;;;;46.78;20.67;;;;;;;;;;5123676;28;20043;-62
2023/12/12 07:33:55;;;;;;;48.03;21.70;;;;;;;;;;5124323;28;20046;-61
2023/12/12 07:36:26;;;;;;;45.22;22.25;;;;;;;;;;5132194;28;20073;-62
2023/12/12 07:39:00;;;;;;;39.45;20.60;;;;;;;;;;5122728;28;20046;-61
2023/12/12 07:41:35;;;;;;;43.40;21.02;;;;;;;;;;5108175;28;20094;-61
2023/12/12 07:44:06;;;;;;;45.65;21.48;;;;;;;;;;5123942;28;20047;-62
2023/12/12 07:46:41;;;;;;;41.00;19.73;;;;;;;;;;5107311;29;20129;-61
2023/12/12 07:49:12;;;;;;;49.33;21.88;;;;;;;;;;5133673;28;20050;-63
2023/12/12 07:51:43;;;;;;;49.97;22.30;;;;;;;;;;5123558;29;20487;-61
2023/12/12 07:54:14;;;;;;;48.95;21.25;;;;;;;;;;5123139;29;20046;-61
2023/12/12 07:56:45;;;;;;;50.92;23.90;;;;;;;;;;5106407;29;20042;-61
2023/12/12 07:59:17;;;;;;;48.17;21.77;;;;;;;;;;5136813;28;20097;-62
2023/12/12 08:01:48;;;;;;;;;;;;;;;;;;5130024;28;20113;-62
2023/12/12 08:04:19;;;;;;;50.08;22.10;;;;;;;;;;5137039;28;19934;-63
2023/12/12 08:06:52;;;;;;;46.05;21.63;;;;;;;;;;5106407;29;20042;-62
2023/12/12 08:09:23;;;;;;;;;;;;;;;;;;5123048;29;20118;-62
2023/12/12 08:11:54;;;;;;;46.55;21.23;;;;;;;;;;5122074;29;19919;-62
2023/12/12 08:14:26;;;;;;;47.83;22.25;;;;;;;;;;5122340;28;20047;-65
2023/12/12 08:16:57;;;;;;;41.97;21.55;;;;;;;;;;5136691;28;20086;-61
2023/12/12 08:19:28;;;;;;;49.75;23.27;;;;;;;;;;5131113;28;20043;-65
2023/12/12 08:21:59;;;;;;;42.67;21.45;;;;;;;;;;5122176;29;20438;-66
2023/12/12 08:24:30;;;;;;;46.20;21.63;;;;;;;;;;5138332;28;20343;-66
2023/12/12 08:27:01;;;;;;;44.22;22.58;;;;;;;;;;5122376;29;20039;-66
2023/12/12 08:29:32;;;;;;;48.53;24.20;;;;;;;;;;5111018;29;20031;-67
2023/12/12 08:32:04;;;;;;;52.67;24.85;;;;;;;;;;5138322;28;20118;-66
2023/12/12 08:34:35;;;;;;;49.43;22.87;;;;;;;;;;5122483;29;20189;-65
2023/12/12 08:37:06;;;;;;;49.65;24.13;;;;;;;;;;5106773;29;20053;-67
2023/12/12 08:39:38;;;;;;;45.33;23.20;;;;;;;;;;5122410;28;20049;-66
2023/12/12 08:42:10;;;;;;;51.05;24.58;;;;;;;;;;5106458;29;20162;-62
2023/12/12 08:44:41;;;;;;;47.10;23.95;;;;;;;;;;5106469;29;20043;-62
2023/12/12 08:47:12;;;;;;;52.27;24.80;;;;;;;;;;5126828;28;20051;-62
2023/12/12 08:49:43;;;;;;;46.97;24.38;;;;;;;;;;5107415;28;20032;-63
2023/12/12 08:52:15;;;;;;;52.75;24.45;;;;;;;;;;5126571;28;20031;-62
2023/12/12 08:54:46;;;;;;;47.35;23.33;;;;;;;;;;5122179;28;20039;-62
2023/12/12 08:57:18;;;;;;;52.70;23.63;;;;;;;;;;5105456;28;20054;-65
2023/12/12 08:59:49;;;;;;;45.95;22.55;;;;;;;;;;5106270;29;20491;-64
2023/12/12 09:02:21;;;;;;;46.38;23.15;;;;;;;;;;5105778;29;20126;-63
2023/12/12 09:04:52;;;;;;;41.17;21.98;;;;;;;;;;5105992;29;20050;-64
2023/12/12 09:07:23;;;;;;;53.28;24.58;;;;;;;;;;5124716;28;20038;-62
2023/12/12 09:09:54;;;;;;;43.90;23.60;;;;;;;;;;5158273;28;20463;-62
2023/12/12 09:12:26;;;;;;;53.30;23.48;;;;;;;;;;5124120;28;20047;-62
2023/12/12 09:14:57;;;;;;;56.55;25.35;;;;;;;;;;5106468;29;20047;-63
2023/12/12 09:17:28;;;;;;;51.30;24.50;;;;;;;;;;5105578;29;20122;-63
2023/12/12 09:20:00;;;;;;;44.70;23.25;;;;;;;;;;5122322;28;20447;-63
2023/12/12 09:22:32;;;;;;;42.30;22.15;;;;;;;;;;5138199;28;20138;-61
2023/12/12 09:25:04;;;;;;;43.05;22.25;;;;;;;;;;5121925;28;20051;-62
2023/12/12 09:27:35;;;;;;;44.15;20.92;;;;;;;;;;5106179;29;20043;-63
2023/12/12 09:30:07;;;;;;;41.88;21.45;;;;;;;;;;5122175;28;20484;-63
2023/12/12 09:32:38;;;;;;;45.50;22.00;;;;;;;;;;5106226;29;20039;-63
2023/12/12 09:35:09;;;;;;;41.58;19.83;;;;;;;;;;5129750;28;20752;-65
2023/12/12 09:37:40;;;;;;;41.58;20.55;;;;;;;;;;5105636;28;20044;-63
2023/12/12 09:40:11;;;;;;;41.35;20.75;;;;;;;;;;5106049;29;20039;-65
2023/12/12 09:42:42;;;;;;;46.70;21.55;;;;;;;;;;5106092;28;20491;-62
2023/12/12 09:45:16;;;;;;;41.40;21.73;;;;;;;;;;5121951;28;20070;-63
2023/12/12 09:47:48;;;;;;;43.90;20.73;;;;;;;;;;5106182;29;20515;-67
2023/12/12 09:50:19;;;;;;;44.85;22.13;;;;;;;;;;5106179;29;20058;-66
2023/12/12 09:52:51;;;;;;;53.47;24.63;;;;;;;;;;5121775;29;20418;-65
2023/12/12 09:55:23;;;;;;;;;;;;;;;;;;5106633;29;20067;-67
2023/12/12 09:57:54;;;;;;;44.00;22.58;;;;;;;;;;5126080;28;19941;-67
2023/12/12 10:00:25;;;;;;;49.35;22.20;;;;;;;;;;5145657;28;20051;-62
2023/12/12 10:02:58;;;;;;;46.67;21.25;;;;;;;;;;5124708;29;20043;-64
2023/12/12 10:05:30;;;;;;;42.17;21.40;;;;;;;;;;5109193;29;20159;-64
2023/12/12 10:08:03;;;;;;;41.63;21.17;;;;;;;;;;5125256;28;20071;-63
2023/12/12 10:10:34;;;;;;;40.58;20.85;;;;;;;;;;5124909;28;20043;-59
2023/12/12 10:13:05;;;;;;;34.03;20.35;;;;;;;;;;5125626;28;20586;-59
2023/12/12 10:15:36;;;;;;;39.95;20.30;;;;;;;;;;5109485;29;20483;-61
2023/12/12 10:18:07;;;;;;;34.80;19.35;;;;;;;;;;5125417;28;20194;-60
2023/12/12 10:20:39;;;;;;;28.25;17.25;;;;;;;;;;5108790;29;20039;-59
2023/12/12 10:23:11;;;;;;;32.22;17.65;;;;;;;;;;5108671;29;20191;-60
2023/12/12 10:25:49;;;;;;;30.88;17.38;;;;;;;;;;5141106;28;20051;-61
2023/12/12 10:28:20;;;;;;;32.70;16.23;;;;;;;;;;5108946;29;20054;-61
2023/12/12 10:30:52;;;;;;;28.75;16.25;;;;;;;;;;5124661;28;20062;-60
2023/12/12 10:33:27;;;;;;;28.83;16.95;;;;;;;;;;5144229;28;20050;-60
2023/12/12 10:36:01;;;;;;;26.63;15.50;;;;;;;;;;5146368;28;20047;-61
2023/12/12 10:38:35;;;;;;;25.95;15.00;;;;;;;;;;5124762;29;20538;-60
2023/12/12 10:41:10;;;;;;;26.95;15.55;;;;;;;;;;5125084;28;20119;-60
2023/12/12 10:43:42;;;;;;;25.45;14.88;;;;;;;;;;5108632;29;20050;-59
2023/12/12 10:46:17;;;;;;;24.38;15.48;;;;;;;;;;5124255;29;20039;-60
2023/12/12 10:48:52;;;;;;;30.95;15.32;;;;;;;;;;5108226;29;20039;-60
2023/12/12 10:51:24;;;;;;;25.70;14.68;;;;;;;;;;5124542;29;20055;-60
2023/12/12 10:53:56;;;;;;;24.50;15.13;;;;;;;;;;5124397;29;20158;-60
2023/12/12 10:56:28;;;;;;;24.60;14.13;;;;;;;;;;5124617;28;20059;-60
2023/12/12 10:58:59;;;;;;;;;;;;;;;;;;5140819;28;20058;-60
2023/12/12 11:01:31;;;;;;;25.63;14.85;;;;;;;;;;5124727;29;19923;-61
2023/12/12 11:04:05;;;;;;;24.77;15.45;;;;;;;;;;5125591;28;20055;-61
2023/12/12 11:06:36;;;;;;;26.92;15.75;;;;;;;;;;5124007;28;20067;-58
2023/12/12 11:09:08;;;;;;;29.05;16.45;;;;;;;;;;5124084;28;20494;-59
2023/12/12 11:11:40;;;;;;;27.80;16.27;;;;;;;;;;5124233;28;20146;-60
2023/12/12 11:14:12;;;;;;;25.30;15.60;;;;;;;;;;5107809;29;20166;-59
2023/12/12 11:16:44;;;;;;;23.60;15.93;;;;;;;;;;5107947;28;20043;-60
2023/12/12 11:19:18;;;;;;;27.35;16.92;;;;;;;;;;5131973;28;20120;-60
2023/12/12 11:21:49;;;;;;;27.80;16.73;;;;;;;;;;5107944;29;20125;-60
2023/12/12 11:24:21;;;;;;;27.40;17.05;;;;;;;;;;5108363;29;20602;-60
2023/12/12 11:26:53;;;;;;;33.10;17.52;;;;;;;;;;5127205;28;20034;-60
2023/12/12 11:29:25;;;;;;;28.50;17.27;;;;;;;;;;5127045;28;20043;-61
2023/12/12 11:31:57;;;;;;;27.25;16.50;;;;;;;;;;5123594;29;20035;-59
2023/12/12 11:34:38;;;;;;;34.60;16.73;;;;;;;;;;5107728;29;20050;-60
2023/12/12 11:37:09;;;;;;;31.08;16.55;;;;;;;;;;5139735;28;20070;-61
2023/12/12 11:39:52;;;;;;;28.67;15.95;;;;;;;;;;5107616;29;20130;-59
2023/12/12 11:42:24;;;;;;;28.70;16.90;;;;;;;;;;5130166;28;20077;-62
2023/12/12 11:44:57;;;;;;;25.08;15.68;;;;;;;;;;5109081;28;20043;-60
2023/12/12 11:47:32;;;;;;;26.23;16.52;;;;;;;;;;5107433;29;20039;-59
2023/12/12 11:50:13;;;;;;;30.13;17.45;;;;;;;;;;5108420;29;20043;-60
2023/12/12 11:52:45;;;;;;;32.80;17.23;;;;;;;;;;5123243;28;20047;-60
2023/12/12 11:55:19;;;;;;;27.63;17.48;;;;;;;;;;5108584;29;20065;-60
2023/12/12 11:57:57;;;;;;;28.92;16.85;;;;;;;;;;5124086;28;20398;-61
2023/12/12 12:00:32;;;;;;;27.85;16.30;;;;;;;;;;5108985;29;20815;-60
2023/12/12 12:03:04;;;;;;;25.65;16.65;;;;;;;;;;5129362;28;20047;-61
2023/12/12 12:05:36;;;;;;;26.92;16.80;;;;;;;;;;5124208;29;20051;-60
2023/12/12 12:08:09;;;;;;;31.17;17.67;;;;;;;;;;5123993;28;20121;-61
2023/12/12 12:10:40;;;;;;;28.65;17.08;;;;;;;;;;5139429;28;20043;-59
2023/12/12 12:13:11;;;;;;;27.60;17.23;;;;;;;;;;5123526;28;20039;-60
2023/12/12 12:15:48;;;;;;;32.95;17.73;;;;;;;;;;5124112;28;20406;-59
2023/12/12 12:18:26;;;;;;;29.13;16.90;;;;;;;;;;5107944;29;20035;-59
2023/12/12 12:20:58;;;;;;;29.58;18.33;;;;;;;;;;5096032;29;20043;-60
2023/12/12 12:23:29;;;;;;;27.95;17.25;;;;;;;;;;5140044;28;20051;-60
2023/12/12 12:26:00;;;;;;;28.63;17.63;;;;;;;;;;5123253;28;20101;-61
2023/12/12 12:28:32;;;;;;;22.83;14.93;;;;;;;;;;5136039;28;20035;-61
2023/12/12 12:31:04;;;;;;;23.20;14.70;;;;;;;;;;5107292;29;20043;-59
2023/12/12 12:33:39;;;;;;;29.75;17.00;;;;;;;;;;5122789;28;20039;-62
2023/12/12 12:36:10;;;;;;;27.92;16.13;;;;;;;;;;5101771;29;20672;-61
2023/12/12 12:38:41;;;;;;;21.40;13.43;;;;;;;;;;5122718;29;20062;-62
2023/12/12 12:41:23;;;;;;;23.75;14.40;;;;;;;;;;5135014;28;20043;-60
2023/12/12 12:43:54;;;;;;;25.13;14.20;;;;;;;;;;5107330;29;20467;-62
2023/12/12 12:46:26;;;;;;;23.75;13.68;;;;;;;;;;5122600;29;20352;-59
2023/12/12 12:48:57;;;;;;;25.08;14.07;;;;;;;;;;5106596;29;20051;-60
2023/12/12 12:51:28;;;;;;;20.63;13.27;;;;;;;;;;5139016;28;20089;-59
2023/12/12 12:53:59;;;;;;;20.67;13.75;;;;;;;;;;5129365;28;20117;-60
2023/12/12 12:56:30;;;;;;;22.35;13.52;;;;;;;;;;5111978;28;20042;-62
2023/12/12 12:59:01;;;;;;;23.10;13.45;;;;;;;;;;5144269;28;20054;-59
2023/12/12 13:01:34;;;;;;;19.95;13.32;;;;;;;;;;5122088;28;20125;-61
2023/12/12 13:04:05;;;;;;;21.17;12.02;;;;;;;;;;5138258;28;20490;-59
2023/12/12 13:06:36;;;;;;;22.05;13.48;;;;;;;;;;5122242;28;20446;-59
2023/12/12 13:09:09;;;;;;;23.38;13.65;;;;;;;;;;5105888;29;20109;-58
2023/12/12 13:11:40;;;;;;;19.52;12.93;;;;;;;;;;5107224;29;20050;-59
2023/12/12 13:14:11;;;;;;;23.15;13.18;;;;;;;;;;5125530;28;20102;-58
2023/12/12 13:16:43;;;;;;;19.27;12.13;;;;;;;;;;5121745;29;20051;-58
2023/12/12 13:19:14;;;;;;;25.35;13.57;;;;;;;;;;5122071;29;20050;-59
2023/12/12 13:21:45;;;;;;;24.92;13.13;;;;;;;;;;5127882;28;20046;-59
2023/12/12 13:24:16;;;;;;;21.15;12.75;;;;;;;;;;5121733;28;20086;-59
2023/12/12 13:26:48;;;;;;;18.75;11.60;;;;;;;;;;5105623;28;20410;-59
2023/12/12 13:29:19;;;;;;;22.08;12.93;;;;;;;;;;5122037;28;20055;-59
2023/12/12 13:31:50;;;;;;;22.47;13.13;;;;;;;;;;5110372;29;20050;-60
2023/12/12 13:34:21;;;;;;;20.67;12.57;;;;;;;;;;5120756;28;20054;-61
2023/12/12 13:36:52;;;;;;;21.23;12.77;;;;;;;;;;5122764;28;20610;-59
2023/12/12 13:39:23;;;;;;;20.23;12.20;;;;;;;;;;5125649;29;20054;-61
2023/12/12 13:41:55;;;;;;;22.17;13.15;;;;;;;;;;5109483;29;20062;-59
2023/12/12 13:44:26;;;;;;;22.65;13.00;;;;;;;;;;5109498;28;20098;-59
2023/12/12 13:46:57;;;;;;;22.92;13.02;;;;;;;;;;5108504;29;20043;-60
2023/12/12 13:49:29;;;;;;;20.23;12.55;;;;;;;;;;5108881;29;20181;-59
2023/12/12 13:52:01;;;;;;;21.25;13.20;;;;;;;;;;5124857;28;20085;-59
2023/12/12 13:54:32;;;;;;;20.70;13.35;;;;;;;;;;5124898;28;20039;-59
2023/12/12 13:57:03;;;;;;;21.40;13.55;;;;;;;;;;5108679;28;20081;-59
2023/12/12 13:59:34;;;;;;;19.93;13.43;;;;;;;;;;5137942;28;20039;-62
2023/12/12 14:02:06;;;;;;;20.63;13.45;;;;;;;;;;5131044;28;20054;-60
2023/12/12 14:04:37;;;;;;;24.15;14.18;;;;;;;;;;5103739;29;20076;-61
2023/12/12 14:07:08;;;;;;;17.88;13.15;;;;;;;;;;5124806;28;20043;-60
2023/12/12 14:09:39;;;;;;;21.42;14.52;;;;;;;;;;5125158;28;20565;-62
2023/12/12 14:12:11;;;;;;;25.90;15.57;;;;;;;;;;5109830;29;20364;-63
2023/12/12 14:14:43;;;;;;;27.60;15.43;;;;;;;;;;5125410;29;20035;-63
2023/12/12 14:17:14;;;;;;;22.48;14.45;;;;;;;;;;5116587;29;20035;-60
2023/12/12 14:19:45;;;;;;;25.60;14.48;;;;;;;;;;5114003;28;20043;-62
2023/12/12 14:22:16;;;;;;;20.60;13.93;;;;;;;;;;5115844;28;20050;-60
2023/12/12 14:24:49;;;;;;;24.20;14.05;;;;;;;;;;5109592;28;20046;-61
2023/12/12 14:27:20;;;;;;;23.55;14.13;;;;;;;;;;5116452;28;20082;-61
2023/12/12 14:29:52;;;;;;;26.73;15.13;;;;;;;;;;5124026;28;20159;-62
2023/12/12 14:32:23;;;;;;;24.20;14.63;;;;;;;;;;5099701;29;20444;-62
2023/12/12 14:34:54;;;;;;;25.10;14.82;;;;;;;;;;5105636;28;20095;-61
2023/12/12 14:37:26;;;;;;;23.77;14.33;;;;;;;;;;5124448;29;20414;-61
2023/12/12 14:39:57;;;;;;;27.38;14.52;;;;;;;;;;5108142;28;20273;-61
2023/12/12 14:42:29;;;;;;;22.73;14.60;;;;;;;;;;5108161;29;20050;-61
2023/12/12 14:45:00;;;;;;;24.50;14.57;;;;;;;;;;5125400;28;20039;-62
2023/12/12 14:47:31;;;;;;;24.90;14.10;;;;;;;;;;5107658;29;20043;-61
2023/12/12 14:50:02;;;;;;;26.23;14.20;;;;;;;;;;5124012;28;20043;-61
2023/12/12 14:52:33;;;;;;;22.42;14.23;;;;;;;;;;5123717;28;20227;-61